sensor_id;sensor_type;location;lat;lon;timestamp;P1;durP1;ratioP1;P2;durP2;ratioP2
1957;SDS011;979;51.076;13.748;2023-03-01T00:01:48;18.10;;;17.60;;
1957;SDS011;979;51.076;13.748;2023-03-01T00:04:17;17.00;;;16.50;;
1957;SDS011;979;51.076;13.748;2023-03-01T00:06:46;16.70;;;16.20;;
1957;SDS011;979;51.076;13.748;2023-03-01T00:09:14;17.07;;;16.67;;
1957;SDS011;979;51.076;13.748;2023-03-01T00:11:43;16.90;;;16.40;;
1957;SDS011;979;51.076;13.748;2023-03-01T00:14:12;18.17;;;17.67;;
1957;SDS011;979;51.076;13.748;2023-03-01T00:16:43;16.67;;;16.20;;
1957;SDS011;979;51.076;13.748;2023-03-01T00:19:14;19.20;;;18.50;;
1957;SDS011;979;51.076;13.748;2023-03-01T00:21:44;18.83;;;18.17;;
1957;SDS011;979;51.076;13.748;2023-03-01T00:24:13;17.20;;;16.70;;
1957;SDS011;979;51.076;13.748;2023-03-01T00:26:41;16.90;;;16.40;;
1957;SDS011;979;51.076;13.748;2023-03-01T00:29:10;16.63;;;16.13;;
1957;SDS011;979;51.076;13.748;2023-03-01T00:31:41;17.17;;;16.67;;
1957;SDS011;979;51.076;13.748;2023-03-01T00:34:10;17.80;;;17.30;;
1957;SDS011;979;51.076;13.748;2023-03-01T00:36:40;17.00;;;16.50;;
1957;SDS011;979;51.076;13.748;2023-03-01T00:39:10;16.30;;;15.90;;
1957;SDS011;979;51.076;13.748;2023-03-01T00:41:39;16.70;;;16.30;;
1957;SDS011;979;51.076;13.748;2023-03-01T00:44:07;17.80;;;17.30;;
1957;SDS011;979;51.076;13.748;2023-03-01T00:46:36;16.93;;;16.43;;
1957;SDS011;979;51.076;13.748;2023-03-01T00:49:05;16.93;;;16.43;;
1957;SDS011;979;51.076;13.748;2023-03-01T00:51:33;16.53;;;16.13;;
1957;SDS011;979;51.076;13.748;2023-03-01T00:54:03;16.20;;;15.80;;
1957;SDS011;979;51.076;13.748;2023-03-01T00:56:32;17.13;;;16.63;;
1957;SDS011;979;51.076;13.748;2023-03-01T00:59:01;16.60;;;16.20;;
1957;SDS011;979;51.076;13.748;2023-03-01T01:01:30;16.60;;;16.20;;
1957;SDS011;979;51.076;13.748;2023-03-01T01:03:59;16.50;;;16.10;;
1957;SDS011;979;51.076;13.748;2023-03-01T01:06:31;16.87;;;16.37;;
1957;SDS011;979;51.076;13.748;2023-03-01T01:09:01;17.10;;;16.60;;
1957;SDS011;979;51.076;13.748;2023-03-01T01:11:33;16.90;;;16.40;;
1957;SDS011;979;51.076;13.748;2023-03-01T01:14:03;17.57;;;17.07;;
1957;SDS011;979;51.076;13.748;2023-03-01T01:16:31;18.13;;;17.63;;
1957;SDS011;979;51.076;13.748;2023-03-01T01:19:00;18.23;;;17.67;;
1957;SDS011;979;51.076;13.748;2023-03-01T01:21:29;18.73;;;18.23;;
1957;SDS011;979;51.076;13.748;2023-03-01T01:23:57;17.30;;;16.80;;
1957;SDS011;979;51.076;13.748;2023-03-01T01:26:28;17.13;;;16.63;;
1957;SDS011;979;51.076;13.748;2023-03-01T01:28:59;17.43;;;16.93;;
1957;SDS011;979;51.076;13.748;2023-03-01T01:31:29;16.90;;;16.40;;
1957;SDS011;979;51.076;13.748;2023-03-01T01:33:59;16.90;;;16.40;;
1957;SDS011;979;51.076;13.748;2023-03-01T01:36:29;16.37;;;15.97;;
1957;SDS011;979;51.076;13.748;2023-03-01T01:38:58;17.07;;;16.57;;
1957;SDS011;979;51.076;13.748;2023-03-01T01:41:29;16.13;;;15.73;;
1957;SDS011;979;51.076;13.748;2023-03-01T01:44:11;17.03;;;16.53;;
1957;SDS011;979;51.076;13.748;2023-03-01T01:46:43;17.20;;;16.70;;
1957;SDS011;979;51.076;13.748;2023-03-01T01:49:17;17.43;;;16.93;;
1957;SDS011;979;51.076;13.748;2023-03-01T01:51:53;17.17;;;16.67;;
1957;SDS011;979;51.076;13.748;2023-03-01T01:54:28;16.70;;;16.30;;
1957;SDS011;979;51.076;13.748;2023-03-01T01:57:03;17.03;;;16.53;;
1957;SDS011;979;51.076;13.748;2023-03-01T01:59:36;18.50;;;17.90;;
1957;SDS011;979;51.076;13.748;2023-03-01T02:02:06;19.10;;;18.60;;
1957;SDS011;979;51.076;13.748;2023-03-01T02:04:35;17.90;;;17.40;;
1957;SDS011;979;51.076;13.748;2023-03-01T02:07:05;17.30;;;16.80;;
1957;SDS011;979;51.076;13.748;2023-03-01T02:09:38;17.57;;;17.07;;
1957;SDS011;979;51.076;13.748;2023-03-01T02:12:10;17.67;;;17.17;;
1957;SDS011;979;51.076;13.748;2023-03-01T02:14:38;17.40;;;16.90;;
1957;SDS011;979;51.076;13.748;2023-03-01T02:17:07;17.37;;;16.87;;
1957;SDS011;979;51.076;13.748;2023-03-01T02:19:39;16.80;;;16.30;;
1957;SDS011;979;51.076;13.748;2023-03-01T02:22:18;17.10;;;16.60;;
1957;SDS011;979;51.076;13.748;2023-03-01T02:24:55;18.13;;;17.53;;
1957;SDS011;979;51.076;13.748;2023-03-01T02:27:34;17.27;;;16.77;;
1957;SDS011;979;51.076;13.748;2023-03-01T02:30:10;17.37;;;16.87;;
1957;SDS011;979;51.076;13.748;2023-03-01T02:32:39;16.90;;;16.43;;
1957;SDS011;979;51.076;13.748;2023-03-01T02:35:09;16.93;;;16.43;;
1957;SDS011;979;51.076;13.748;2023-03-01T02:38:26;16.80;;;16.30;;
1957;SDS011;979;51.076;13.748;2023-03-01T02:41:01;17.53;;;17.03;;
1957;SDS011;979;51.076;13.748;2023-03-01T02:43:32;17.33;;;16.83;;
1957;SDS011;979;51.076;13.748;2023-03-01T02:46:05;17.53;;;17.03;;
1957;SDS011;979;51.076;13.748;2023-03-01T02:48:39;16.83;;;16.33;;
1957;SDS011;979;51.076;13.748;2023-03-01T02:51:10;16.27;;;15.87;;
1957;SDS011;979;51.076;13.748;2023-03-01T02:54:06;16.80;;;16.40;;
1957;SDS011;979;51.076;13.748;2023-03-01T02:56:38;16.40;;;16.00;;
1957;SDS011;979;51.076;13.748;2023-03-01T02:59:08;16.40;;;16.00;;
1957;SDS011;979;51.076;13.748;2023-03-01T03:01:39;17.87;;;17.00;;
1957;SDS011;979;51.076;13.748;2023-03-01T03:04:09;16.47;;;16.07;;
1957;SDS011;979;51.076;13.748;2023-03-01T03:06:48;16.40;;;16.00;;
1957;SDS011;979;51.076;13.748;2023-03-01T03:09:18;17.00;;;16.50;;
1957;SDS011;979;51.076;13.748;2023-03-01T03:11:46;16.37;;;15.97;;
1957;SDS011;979;51.076;13.748;2023-03-01T03:14:15;16.20;;;15.80;;
1957;SDS011;979;51.076;13.748;2023-03-01T03:16:48;16.10;;;15.70;;
1957;SDS011;979;51.076;13.748;2023-03-01T03:19:17;16.37;;;15.97;;
1957;SDS011;979;51.076;13.748;2023-03-01T03:21:47;16.43;;;16.03;;
1957;SDS011;979;51.076;13.748;2023-03-01T03:24:15;17.43;;;17.03;;
1957;SDS011;979;51.076;13.748;2023-03-01T03:26:47;17.70;;;17.20;;
1957;SDS011;979;51.076;13.748;2023-03-01T03:29:15;16.70;;;16.30;;
1957;SDS011;979;51.076;13.748;2023-03-01T03:31:44;17.17;;;16.77;;
1957;SDS011;979;51.076;13.748;2023-03-01T03:34:14;17.40;;;16.90;;
1957;SDS011;979;51.076;13.748;2023-03-01T03:36:44;16.87;;;16.47;;
1957;SDS011;979;51.076;13.748;2023-03-01T03:39:13;17.00;;;16.60;;
1957;SDS011;979;51.076;13.748;2023-03-01T03:41:41;17.20;;;16.80;;
1957;SDS011;979;51.076;13.748;2023-03-01T03:44:09;17.53;;;17.13;;
1957;SDS011;979;51.076;13.748;2023-03-01T03:46:38;17.40;;;17.00;;
1957;SDS011;979;51.076;13.748;2023-03-01T03:49:06;19.10;;;18.50;;
1957;SDS011;979;51.076;13.748;2023-03-01T03:51:36;17.70;;;17.30;;
1957;SDS011;979;51.076;13.748;2023-03-01T03:54:05;19.10;;;18.60;;
1957;SDS011;979;51.076;13.748;2023-03-01T03:56:33;17.40;;;17.00;;
1957;SDS011;979;51.076;13.748;2023-03-01T03:59:02;18.00;;;17.60;;
1957;SDS011;979;51.076;13.748;2023-03-01T04:01:30;15.60;;;15.27;;
1957;SDS011;979;51.076;13.748;2023-03-01T04:03:59;16.30;;;15.90;;
1957;SDS011;979;51.076;13.748;2023-03-01T04:06:30;17.53;;;17.10;;
1957;SDS011;979;51.076;13.748;2023-03-01T04:09:00;16.37;;;15.97;;
1957;SDS011;979;51.076;13.748;2023-03-01T04:11:29;18.13;;;17.57;;
1957;SDS011;979;51.076;13.748;2023-03-01T04:13:57;16.60;;;16.20;;
1957;SDS011;979;51.076;13.748;2023-03-01T04:16:26;16.73;;;16.33;;
1957;SDS011;979;51.076;13.748;2023-03-01T04:18:56;16.30;;;15.80;;
1957;SDS011;979;51.076;13.748;2023-03-01T04:21:26;17.20;;;16.70;;
1957;SDS011;979;51.076;13.748;2023-03-01T04:23:54;16.00;;;15.60;;
1957;SDS011;979;51.076;13.748;2023-03-01T04:26:24;15.60;;;15.20;;
1957;SDS011;979;51.076;13.748;2023-03-01T04:28:57;15.03;;;14.73;;
1957;SDS011;979;51.076;13.748;2023-03-01T04:31:28;16.43;;;16.03;;
1957;SDS011;979;51.076;13.748;2023-03-01T04:33:57;16.77;;;16.37;;
1957;SDS011;979;51.076;13.748;2023-03-01T04:36:27;15.90;;;15.50;;
1957;SDS011;979;51.076;13.748;2023-03-01T04:38:57;17.60;;;17.10;;
1957;SDS011;979;51.076;13.748;2023-03-01T04:41:27;16.60;;;16.20;;
1957;SDS011;979;51.076;13.748;2023-03-01T04:43:56;16.70;;;16.30;;
1957;SDS011;979;51.076;13.748;2023-03-01T04:46:26;15.47;;;15.17;;
1957;SDS011;979;51.076;13.748;2023-03-01T04:48:55;20.43;;;19.17;;
1957;SDS011;979;51.076;13.748;2023-03-01T04:51:24;16.40;;;16.00;;
1957;SDS011;979;51.076;13.748;2023-03-01T04:53:52;27.73;;;20.97;;
1957;SDS011;979;51.076;13.748;2023-03-01T04:56:20;16.93;;;16.53;;
1957;SDS011;979;51.076;13.748;2023-03-01T04:58:52;16.70;;;16.30;;
1957;SDS011;979;51.076;13.748;2023-03-01T05:01:21;16.57;;;16.20;;
1957;SDS011;979;51.076;13.748;2023-03-01T05:03:50;16.20;;;15.80;;
1957;SDS011;979;51.076;13.748;2023-03-01T05:06:19;16.50;;;16.10;;
1957;SDS011;979;51.076;13.748;2023-03-01T05:08:48;16.50;;;16.10;;
1957;SDS011;979;51.076;13.748;2023-03-01T05:11:17;16.83;;;16.43;;
1957;SDS011;979;51.076;13.748;2023-03-01T05:13:45;17.00;;;16.60;;
1957;SDS011;979;51.076;13.748;2023-03-01T05:16:15;16.23;;;15.83;;
1957;SDS011;979;51.076;13.748;2023-03-01T05:18:44;16.57;;;16.17;;
1957;SDS011;979;51.076;13.748;2023-03-01T05:21:13;15.90;;;15.50;;
1957;SDS011;979;51.076;13.748;2023-03-01T05:23:43;16.17;;;15.77;;
1957;SDS011;979;51.076;13.748;2023-03-01T05:26:13;16.40;;;16.00;;
1957;SDS011;979;51.076;13.748;2023-03-01T05:28:59;15.40;;;15.00;;
1957;SDS011;979;51.076;13.748;2023-03-01T05:31:29;15.33;;;15.00;;
1957;SDS011;979;51.076;13.748;2023-03-01T05:33:58;19.83;;;19.23;;
1957;SDS011;979;51.076;13.748;2023-03-01T05:36:26;15.13;;;14.83;;
1957;SDS011;979;51.076;13.748;2023-03-01T05:38:55;19.60;;;19.03;;
1957;SDS011;979;51.076;13.748;2023-03-01T05:41:23;15.97;;;15.57;;
1957;SDS011;979;51.076;13.748;2023-03-01T05:43:52;14.43;;;14.13;;
1957;SDS011;979;51.076;13.748;2023-03-01T05:46:20;15.60;;;15.20;;
1957;SDS011;979;51.076;13.748;2023-03-01T05:48:52;15.13;;;14.83;;
1957;SDS011;979;51.076;13.748;2023-03-01T05:51:21;16.00;;;15.60;;
1957;SDS011;979;51.076;13.748;2023-03-01T05:53:50;15.80;;;15.40;;
1957;SDS011;979;51.076;13.748;2023-03-01T05:56:19;15.80;;;15.40;;
1957;SDS011;979;51.076;13.748;2023-03-01T05:58:48;14.60;;;14.30;;
1957;SDS011;979;51.076;13.748;2023-03-01T06:01:17;15.80;;;15.40;;
1957;SDS011;979;51.076;13.748;2023-03-01T06:03:45;16.07;;;15.67;;
1957;SDS011;979;51.076;13.748;2023-03-01T06:06:15;16.10;;;15.70;;
1957;SDS011;979;51.076;13.748;2023-03-01T06:08:44;15.73;;;15.33;;
1957;SDS011;979;51.076;13.748;2023-03-01T06:11:12;15.70;;;15.30;;
1957;SDS011;979;51.076;13.748;2023-03-01T06:13:41;16.17;;;15.77;;
1957;SDS011;979;51.076;13.748;2023-03-01T06:16:10;16.07;;;15.67;;
1957;SDS011;979;51.076;13.748;2023-03-01T06:18:39;14.17;;;13.87;;
1957;SDS011;979;51.076;13.748;2023-03-01T06:21:08;15.07;;;14.77;;
1957;SDS011;979;51.076;13.748;2023-03-01T06:23:39;16.20;;;15.80;;
1957;SDS011;979;51.076;13.748;2023-03-01T06:26:28;15.73;;;15.33;;
1957;SDS011;979;51.076;13.748;2023-03-01T06:28:57;15.80;;;15.40;;
1957;SDS011;979;51.076;13.748;2023-03-01T06:31:25;18.00;;;17.50;;
1957;SDS011;979;51.076;13.748;2023-03-01T06:33:54;16.30;;;15.90;;
1957;SDS011;979;51.076;13.748;2023-03-01T06:36:22;15.90;;;15.50;;
1957;SDS011;979;51.076;13.748;2023-03-01T06:38:52;16.00;;;15.60;;
1957;SDS011;979;51.076;13.748;2023-03-01T06:41:21;16.80;;;16.40;;
1957;SDS011;979;51.076;13.748;2023-03-01T06:43:49;16.83;;;16.43;;
1957;SDS011;979;51.076;13.748;2023-03-01T06:46:18;16.00;;;15.60;;
1957;SDS011;979;51.076;13.748;2023-03-01T06:48:46;18.80;;;18.13;;
1957;SDS011;979;51.076;13.748;2023-03-01T06:51:17;15.93;;;15.53;;
1957;SDS011;979;51.076;13.748;2023-03-01T06:53:45;15.90;;;15.50;;
1957;SDS011;979;51.076;13.748;2023-03-01T06:56:16;16.60;;;16.20;;
1957;SDS011;979;51.076;13.748;2023-03-01T06:58:44;17.73;;;17.10;;
1957;SDS011;979;51.076;13.748;2023-03-01T07:01:13;18.30;;;17.60;;
1957;SDS011;979;51.076;13.748;2023-03-01T07:03:41;15.40;;;15.10;;
1957;SDS011;979;51.076;13.748;2023-03-01T07:06:10;15.60;;;15.27;;
1957;SDS011;979;51.076;13.748;2023-03-01T07:08:39;16.07;;;15.67;;
1957;SDS011;979;51.076;13.748;2023-03-01T07:11:07;14.53;;;14.23;;
1957;SDS011;979;51.076;13.748;2023-03-01T07:13:38;14.70;;;14.40;;
1957;SDS011;979;51.076;13.748;2023-03-01T07:16:07;18.70;;;17.90;;
1957;SDS011;979;51.076;13.748;2023-03-01T07:18:35;16.70;;;16.30;;
1957;SDS011;979;51.076;13.748;2023-03-01T07:21:04;16.50;;;16.10;;
1957;SDS011;979;51.076;13.748;2023-03-01T07:23:33;16.63;;;16.23;;
1957;SDS011;979;51.076;13.748;2023-03-01T07:26:02;14.87;;;14.57;;
1957;SDS011;979;51.076;13.748;2023-03-01T07:28:31;16.03;;;15.63;;
1957;SDS011;979;51.076;13.748;2023-03-01T07:31:04;15.97;;;15.57;;
1957;SDS011;979;51.076;13.748;2023-03-01T07:33:33;15.67;;;15.27;;
1957;SDS011;979;51.076;13.748;2023-03-01T07:36:02;15.70;;;15.30;;
1957;SDS011;979;51.076;13.748;2023-03-01T07:38:31;15.13;;;14.83;;
1957;SDS011;979;51.076;13.748;2023-03-01T07:41:00;15.37;;;15.07;;
1957;SDS011;979;51.076;13.748;2023-03-01T07:43:32;15.87;;;15.47;;
1957;SDS011;979;51.076;13.748;2023-03-01T07:46:01;15.70;;;15.30;;
1957;SDS011;979;51.076;13.748;2023-03-01T07:48:32;15.50;;;15.10;;
1957;SDS011;979;51.076;13.748;2023-03-01T07:51:02;15.63;;;15.23;;
1957;SDS011;979;51.076;13.748;2023-03-01T07:53:32;15.10;;;14.80;;
1957;SDS011;979;51.076;13.748;2023-03-01T07:56:02;15.33;;;14.93;;
1957;SDS011;979;51.076;13.748;2023-03-01T07:58:33;14.50;;;14.20;;
1957;SDS011;979;51.076;13.748;2023-03-01T08:01:04;16.80;;;16.30;;
1957;SDS011;979;51.076;13.748;2023-03-01T08:03:34;14.93;;;14.63;;
1957;SDS011;979;51.076;13.748;2023-03-01T08:06:03;15.77;;;15.30;;
1957;SDS011;979;51.076;13.748;2023-03-01T08:08:34;16.13;;;15.73;;
1957;SDS011;979;51.076;13.748;2023-03-01T08:11:05;15.73;;;15.33;;
1957;SDS011;979;51.076;13.748;2023-03-01T08:13:34;16.70;;;16.30;;
1957;SDS011;979;51.076;13.748;2023-03-01T08:16:05;16.13;;;15.73;;
1957;SDS011;979;51.076;13.748;2023-03-01T08:18:37;15.90;;;15.50;;
1957;SDS011;979;51.076;13.748;2023-03-01T08:21:07;17.00;;;16.47;;
1957;SDS011;979;51.076;13.748;2023-03-01T08:23:37;15.90;;;15.50;;
1957;SDS011;979;51.076;13.748;2023-03-01T08:26:07;22.20;;;20.57;;
1957;SDS011;979;51.076;13.748;2023-03-01T08:28:37;25.80;;;23.97;;
1957;SDS011;979;51.076;13.748;2023-03-01T08:31:14;24.17;;;22.53;;
1957;SDS011;979;51.076;13.748;2023-03-01T08:33:43;25.90;;;23.77;;
1957;SDS011;979;51.076;13.748;2023-03-01T08:36:17;27.37;;;24.67;;
1957;SDS011;979;51.076;13.748;2023-03-01T08:38:47;29.17;;;26.27;;
1957;SDS011;979;51.076;13.748;2023-03-01T08:41:16;29.83;;;26.93;;
1957;SDS011;979;51.076;13.748;2023-03-01T08:43:44;27.87;;;25.37;;
1957;SDS011;979;51.076;13.748;2023-03-01T08:46:14;25.47;;;23.30;;
1957;SDS011;979;51.076;13.748;2023-03-01T08:48:42;27.17;;;25.27;;
1957;SDS011;979;51.076;13.748;2023-03-01T08:51:11;27.10;;;24.57;;
1957;SDS011;979;51.076;13.748;2023-03-01T08:53:41;30.43;;;27.40;;
1957;SDS011;979;51.076;13.748;2023-03-01T08:56:10;28.80;;;26.17;;
1957;SDS011;979;51.076;13.748;2023-03-01T08:58:43;29.70;;;26.83;;
1957;SDS011;979;51.076;13.748;2023-03-01T09:01:13;29.33;;;26.77;;
1957;SDS011;979;51.076;13.748;2023-03-01T09:03:43;27.97;;;25.77;;
1957;SDS011;979;51.076;13.748;2023-03-01T09:06:12;28.83;;;26.00;;
1957;SDS011;979;51.076;13.748;2023-03-01T09:08:42;30.37;;;27.50;;
1957;SDS011;979;51.076;13.748;2023-03-01T09:11:16;28.00;;;25.80;;
1957;SDS011;979;51.076;13.748;2023-03-01T09:13:46;29.50;;;26.80;;
1957;SDS011;979;51.076;13.748;2023-03-01T09:16:17;29.63;;;27.03;;
1957;SDS011;979;51.076;13.748;2023-03-01T09:18:48;29.03;;;26.53;;
1957;SDS011;979;51.076;13.748;2023-03-01T09:21:18;29.10;;;26.63;;
1957;SDS011;979;51.076;13.748;2023-03-01T09:24:07;30.83;;;27.73;;
1957;SDS011;979;51.076;13.748;2023-03-01T09:26:40;29.33;;;26.73;;
1957;SDS011;979;51.076;13.748;2023-03-01T09:29:08;29.57;;;26.60;;
1957;SDS011;979;51.076;13.748;2023-03-01T09:31:38;29.43;;;27.00;;
1957;SDS011;979;51.076;13.748;2023-03-01T09:34:09;30.43;;;27.73;;
1957;SDS011;979;51.076;13.748;2023-03-01T09:36:37;30.33;;;26.60;;
1957;SDS011;979;51.076;13.748;2023-03-01T09:39:06;31.93;;;29.03;;
1957;SDS011;979;51.076;13.748;2023-03-01T09:41:43;26.27;;;24.47;;
1957;SDS011;979;51.076;13.748;2023-03-01T09:44:20;30.60;;;27.47;;
1957;SDS011;979;51.076;13.748;2023-03-01T09:46:55;28.97;;;26.67;;
1957;SDS011;979;51.076;13.748;2023-03-01T09:49:24;33.37;;;29.63;;
1957;SDS011;979;51.076;13.748;2023-03-01T09:51:58;31.90;;;28.50;;
1957;SDS011;979;51.076;13.748;2023-03-01T09:54:31;31.07;;;28.27;;
1957;SDS011;979;51.076;13.748;2023-03-01T09:57:09;31.83;;;28.50;;
1957;SDS011;979;51.076;13.748;2023-03-01T09:59:48;29.00;;;26.30;;
1957;SDS011;979;51.076;13.748;2023-03-01T10:02:33;30.60;;;27.63;;
1957;SDS011;979;51.076;13.748;2023-03-01T10:05:14;34.43;;;30.93;;
1957;SDS011;979;51.076;13.748;2023-03-01T10:07:56;32.77;;;29.77;;
1957;SDS011;979;51.076;13.748;2023-03-01T10:10:34;35.80;;;32.50;;
1957;SDS011;979;51.076;13.748;2023-03-01T10:13:09;31.67;;;28.63;;
1957;SDS011;979;51.076;13.748;2023-03-01T10:15:53;33.97;;;28.87;;
1957;SDS011;979;51.076;13.748;2023-03-01T10:18:26;33.90;;;29.30;;
1957;SDS011;979;51.076;13.748;2023-03-01T10:21:02;33.03;;;29.47;;
1957;SDS011;979;51.076;13.748;2023-03-01T10:23:35;32.20;;;29.10;;
1957;SDS011;979;51.076;13.748;2023-03-01T10:26:07;32.97;;;29.97;;
1957;SDS011;979;51.076;13.748;2023-03-01T10:28:55;30.47;;;27.70;;
1957;SDS011;979;51.076;13.748;2023-03-01T10:31:36;31.70;;;28.80;;
1957;SDS011;979;51.076;13.748;2023-03-01T10:34:11;31.80;;;29.00;;
1957;SDS011;979;51.076;13.748;2023-03-01T10:36:43;30.23;;;27.43;;
1957;SDS011;979;51.076;13.748;2023-03-01T10:39:16;30.73;;;27.73;;
1957;SDS011;979;51.076;13.748;2023-03-01T10:41:59;32.17;;;29.17;;
1957;SDS011;979;51.076;13.748;2023-03-01T10:44:39;31.47;;;28.50;;
1957;SDS011;979;51.076;13.748;2023-03-01T10:47:13;30.97;;;28.30;;
1957;SDS011;979;51.076;13.748;2023-03-01T10:49:56;30.80;;;28.13;;
1957;SDS011;979;51.076;13.748;2023-03-01T10:52:28;32.30;;;28.90;;
1957;SDS011;979;51.076;13.748;2023-03-01T10:55:02;26.80;;;24.60;;
1957;SDS011;979;51.076;13.748;2023-03-01T10:57:47;29.30;;;26.60;;
1957;SDS011;979;51.076;13.748;2023-03-01T11:00:21;30.63;;;27.57;;
1957;SDS011;979;51.076;13.748;2023-03-01T11:05:55;28.93;;;26.17;;
1957;SDS011;979;51.076;13.748;2023-03-01T11:08:35;29.13;;;26.53;;
1957;SDS011;979;51.076;13.748;2023-03-01T11:11:11;30.07;;;27.67;;
1957;SDS011;979;51.076;13.748;2023-03-01T11:13:56;27.80;;;25.60;;
1957;SDS011;979;51.076;13.748;2023-03-01T11:16:33;26.97;;;24.53;;
1957;SDS011;979;51.076;13.748;2023-03-01T11:21:52;30.70;;;27.90;;
1957;SDS011;979;51.076;13.748;2023-03-01T11:24:28;29.37;;;26.57;;
1957;SDS011;979;51.076;13.748;2023-03-01T11:27:02;26.97;;;24.53;;
1957;SDS011;979;51.076;13.748;2023-03-01T11:29:44;28.93;;;25.90;;
1957;SDS011;979;51.076;13.748;2023-03-01T11:32:17;27.93;;;25.60;;
1957;SDS011;979;51.076;13.748;2023-03-01T11:34:50;30.37;;;27.43;;
1957;SDS011;979;51.076;13.748;2023-03-01T11:37:32;27.77;;;25.30;;
1957;SDS011;979;51.076;13.748;2023-03-01T11:40:13;28.07;;;25.57;;
1957;SDS011;979;51.076;13.748;2023-03-01T11:42:50;26.53;;;24.43;;
1957;SDS011;979;51.076;13.748;2023-03-01T11:45:24;25.80;;;23.90;;
1957;SDS011;979;51.076;13.748;2023-03-01T11:48:07;26.73;;;24.20;;
1957;SDS011;979;51.076;13.748;2023-03-01T11:51:17;28.47;;;26.53;;
1957;SDS011;979;51.076;13.748;2023-03-01T11:53:56;29.27;;;26.30;;
1957;SDS011;979;51.076;13.748;2023-03-01T11:56:44;29.53;;;27.17;;
1957;SDS011;979;51.076;13.748;2023-03-01T11:59:31;27.30;;;25.40;;
1957;SDS011;979;51.076;13.748;2023-03-01T12:02:20;29.00;;;26.90;;
1957;SDS011;979;51.076;13.748;2023-03-01T12:07:57;29.30;;;27.10;;
1957;SDS011;979;51.076;13.748;2023-03-01T12:10:37;29.37;;;27.07;;
1957;SDS011;979;51.076;13.748;2023-03-01T12:13:23;30.17;;;28.10;;
1957;SDS011;979;51.076;13.748;2023-03-01T12:19:33;32.70;;;30.30;;
1957;SDS011;979;51.076;13.748;2023-03-01T12:22:15;32.07;;;29.73;;
1957;SDS011;979;51.076;13.748;2023-03-01T12:25:02;32.97;;;30.57;;
1957;SDS011;979;51.076;13.748;2023-03-01T12:27:46;33.07;;;30.80;;
1957;SDS011;979;51.076;13.748;2023-03-01T12:30:39;32.80;;;30.10;;
1957;SDS011;979;51.076;13.748;2023-03-01T12:33:21;40.10;;;37.10;;
1957;SDS011;979;51.076;13.748;2023-03-01T12:36:11;37.33;;;34.60;;
1957;SDS011;979;51.076;13.748;2023-03-01T12:38:55;37.53;;;34.80;;
1957;SDS011;979;51.076;13.748;2023-03-01T12:41:38;37.80;;;35.10;;
1957;SDS011;979;51.076;13.748;2023-03-01T12:47:19;34.87;;;32.10;;
1957;SDS011;979;51.076;13.748;2023-03-01T12:49:59;35.20;;;32.80;;
1957;SDS011;979;51.076;13.748;2023-03-01T12:52:35;36.73;;;34.10;;
1957;SDS011;979;51.076;13.748;2023-03-01T12:55:08;36.93;;;34.37;;
1957;SDS011;979;51.076;13.748;2023-03-01T12:57:53;35.77;;;33.17;;
1957;SDS011;979;51.076;13.748;2023-03-01T13:00:32;34.77;;;32.53;;
1957;SDS011;979;51.076;13.748;2023-03-01T13:03:10;35.40;;;32.93;;
1957;SDS011;979;51.076;13.748;2023-03-01T13:05:55;35.63;;;33.13;;
1957;SDS011;979;51.076;13.748;2023-03-01T13:08:34;34.43;;;31.93;;
1957;SDS011;979;51.076;13.748;2023-03-01T13:11:11;37.20;;;34.40;;
1957;SDS011;979;51.076;13.748;2023-03-01T13:13:44;35.87;;;33.27;;
1957;SDS011;979;51.076;13.748;2023-03-01T13:19:15;34.33;;;31.90;;
1957;SDS011;979;51.076;13.748;2023-03-01T13:21:45;34.93;;;32.40;;
1957;SDS011;979;51.076;13.748;2023-03-01T13:24:23;36.87;;;33.77;;
1957;SDS011;979;51.076;13.748;2023-03-01T13:29:51;35.67;;;33.17;;
1957;SDS011;979;51.076;13.748;2023-03-01T13:32:23;34.77;;;32.43;;
1957;SDS011;979;51.076;13.748;2023-03-01T13:41:05;36.60;;;33.80;;
1957;SDS011;979;51.076;13.748;2023-03-01T13:43:34;35.13;;;32.63;;
1957;SDS011;979;51.076;13.748;2023-03-01T13:46:07;35.40;;;32.80;;
1957;SDS011;979;51.076;13.748;2023-03-01T13:48:44;36.40;;;33.60;;
1957;SDS011;979;51.076;13.748;2023-03-01T13:51:19;36.13;;;33.03;;
1957;SDS011;979;51.076;13.748;2023-03-01T13:53:50;35.77;;;33.07;;
1957;SDS011;979;51.076;13.748;2023-03-01T13:56:24;36.77;;;33.47;;
1957;SDS011;979;51.076;13.748;2023-03-01T13:58:57;36.10;;;33.30;;
1957;SDS011;979;51.076;13.748;2023-03-01T14:01:29;38.77;;;35.70;;
1957;SDS011;979;51.076;13.748;2023-03-01T14:04:16;36.60;;;33.60;;
1957;SDS011;979;51.076;13.748;2023-03-01T14:06:47;34.53;;;31.87;;
1957;SDS011;979;51.076;13.748;2023-03-01T14:09:16;35.50;;;32.60;;
1957;SDS011;979;51.076;13.748;2023-03-01T14:11:54;34.27;;;31.73;;
1957;SDS011;979;51.076;13.748;2023-03-01T14:14:36;33.43;;;30.67;;
1957;SDS011;979;51.076;13.748;2023-03-01T14:20:17;35.27;;;32.47;;
1957;SDS011;979;51.076;13.748;2023-03-01T14:22:47;33.90;;;31.17;;
1957;SDS011;979;51.076;13.748;2023-03-01T14:25:25;33.50;;;30.90;;
1957;SDS011;979;51.076;13.748;2023-03-01T14:28:00;35.07;;;32.47;;
1957;SDS011;979;51.076;13.748;2023-03-01T14:30:33;33.83;;;31.00;;
1957;SDS011;979;51.076;13.748;2023-03-01T14:33:16;33.30;;;30.40;;
1957;SDS011;979;51.076;13.748;2023-03-01T14:35:55;35.17;;;31.87;;
1957;SDS011;979;51.076;13.748;2023-03-01T14:38:30;34.50;;;31.43;;
1957;SDS011;979;51.076;13.748;2023-03-01T14:41:02;32.43;;;29.77;;
1957;SDS011;979;51.076;13.748;2023-03-01T14:43:32;33.67;;;30.47;;
1957;SDS011;979;51.076;13.748;2023-03-01T14:46:01;32.70;;;29.70;;
1957;SDS011;979;51.076;13.748;2023-03-01T14:48:29;32.13;;;29.53;;
1957;SDS011;979;51.076;13.748;2023-03-01T14:51:00;32.93;;;29.90;;
1957;SDS011;979;51.076;13.748;2023-03-01T14:53:28;35.13;;;31.87;;
1957;SDS011;979;51.076;13.748;2023-03-01T14:56:15;32.57;;;29.60;;
1957;SDS011;979;51.076;13.748;2023-03-01T14:58:45;33.20;;;30.00;;
1957;SDS011;979;51.076;13.748;2023-03-01T15:01:15;32.20;;;29.30;;
1957;SDS011;979;51.076;13.748;2023-03-01T15:03:46;33.13;;;29.97;;
1957;SDS011;979;51.076;13.748;2023-03-01T15:06:18;32.17;;;29.30;;
1957;SDS011;979;51.076;13.748;2023-03-01T15:08:50;33.43;;;30.30;;
1957;SDS011;979;51.076;13.748;2023-03-01T15:11:21;30.73;;;27.90;;
1957;SDS011;979;51.076;13.748;2023-03-01T15:13:51;32.97;;;29.97;;
1957;SDS011;979;51.076;13.748;2023-03-01T15:16:22;30.77;;;28.17;;
1957;SDS011;979;51.076;13.748;2023-03-01T15:18:56;30.23;;;27.77;;
1957;SDS011;979;51.076;13.748;2023-03-01T15:21:29;35.93;;;30.07;;
1957;SDS011;979;51.076;13.748;2023-03-01T15:24:03;28.23;;;25.77;;
1957;SDS011;979;51.076;13.748;2023-03-01T15:26:49;31.50;;;28.50;;
1957;SDS011;979;51.076;13.748;2023-03-01T15:29:22;32.60;;;29.47;;
1957;SDS011;979;51.076;13.748;2023-03-01T15:31:58;30.57;;;28.10;;
1957;SDS011;979;51.076;13.748;2023-03-01T15:34:30;30.40;;;27.80;;
1957;SDS011;979;51.076;13.748;2023-03-01T15:37:03;31.37;;;28.80;;
1957;SDS011;979;51.076;13.748;2023-03-01T15:39:38;26.63;;;24.73;;
1957;SDS011;979;51.076;13.748;2023-03-01T15:42:10;30.10;;;27.27;;
1957;SDS011;979;51.076;13.748;2023-03-01T15:44:42;29.70;;;26.70;;
1957;SDS011;979;51.076;13.748;2023-03-01T15:50:03;29.67;;;27.13;;
1957;SDS011;979;51.076;13.748;2023-03-01T15:52:35;29.10;;;26.63;;
1957;SDS011;979;51.076;13.748;2023-03-01T15:55:14;28.90;;;26.23;;